sensor_id;sensor_type;location;lat;lon;timestamp;P1;durP1;ratioP1;P2;durP2;ratioP2
3491;SDS011;1760;52.480;13.422;2023-06-10T00:00:17;5.73;;;4.40;;
3491;SDS011;1760;52.480;13.422;2023-06-10T00:02:47;8.67;;;4.20;;
3491;SDS011;1760;52.480;13.422;2023-06-10T00:05:15;8.90;;;4.20;;
3491;SDS011;1760;52.480;13.422;2023-06-10T00:07:49;7.30;;;3.40;;
3491;SDS011;1760;52.480;13.422;2023-06-10T00:10:20;7.83;;;4.27;;
3491;SDS011;1760;52.480;13.422;2023-06-10T00:12:49;8.03;;;3.60;;
3491;SDS011;1760;52.480;13.422;2023-06-10T00:15:16;10.80;;;3.27;;
3491;SDS011;1760;52.480;13.422;2023-06-10T00:17:47;12.47;;;3.93;;
3491;SDS011;1760;52.480;13.422;2023-06-10T00:20:19;6.73;;;4.83;;
3491;SDS011;1760;52.480;13.422;2023-06-10T00:22:50;4.77;;;3.40;;
3491;SDS011;1760;52.480;13.422;2023-06-10T00:25:18;12.40;;;5.23;;
3491;SDS011;1760;52.480;13.422;2023-06-10T00:27:45;8.17;;;3.60;;
3491;SDS011;1760;52.480;13.422;2023-06-10T00:30:15;10.70;;;2.73;;
3491;SDS011;1760;52.480;13.422;2023-06-10T00:32:42;8.47;;;3.77;;
3491;SDS011;1760;52.480;13.422;2023-06-10T00:35:10;5.57;;;3.90;;
3491;SDS011;1760;52.480;13.422;2023-06-10T00:37:45;6.80;;;4.03;;
3491;SDS011;1760;52.480;13.422;2023-06-10T00:40:14;5.07;;;3.40;;
3491;SDS011;1760;52.480;13.422;2023-06-10T00:42:52;7.93;;;3.20;;
3491;SDS011;1760;52.480;13.422;2023-06-10T00:45:19;5.60;;;3.33;;
3491;SDS011;1760;52.480;13.422;2023-06-10T00:47:51;12.30;;;3.47;;
3491;SDS011;1760;52.480;13.422;2023-06-10T00:50:18;12.43;;;3.07;;
3491;SDS011;1760;52.480;13.422;2023-06-10T00:52:47;8.70;;;3.13;;
3491;SDS011;1760;52.480;13.422;2023-06-10T00:55:19;8.90;;;3.53;;
3491;SDS011;1760;52.480;13.422;2023-06-10T00:57:50;9.10;;;3.87;;
3491;SDS011;1760;52.480;13.422;2023-06-10T01:00:18;7.00;;;2.80;;
3491;SDS011;1760;52.480;13.422;2023-06-10T01:02:46;6.10;;;3.40;;
3491;SDS011;1760;52.480;13.422;2023-06-10T01:05:15;7.00;;;3.77;;
3491;SDS011;1760;52.480;13.422;2023-06-10T01:07:45;4.83;;;3.20;;
3491;SDS011;1760;52.480;13.422;2023-06-10T01:10:22;6.60;;;3.23;;
3491;SDS011;1760;52.480;13.422;2023-06-10T01:13:05;8.17;;;3.70;;
3491;SDS011;1760;52.480;13.422;2023-06-10T01:15:37;4.83;;;3.37;;
3491;SDS011;1760;52.480;13.422;2023-06-10T01:18:05;6.53;;;3.87;;
3491;SDS011;1760;52.480;13.422;2023-06-10T01:20:43;5.70;;;3.73;;
3491;SDS011;1760;52.480;13.422;2023-06-10T01:23:15;8.60;;;3.93;;
3491;SDS011;1760;52.480;13.422;2023-06-10T01:25:44;4.20;;;2.90;;
3491;SDS011;1760;52.480;13.422;2023-06-10T01:28:18;7.33;;;3.10;;
3491;SDS011;1760;52.480;13.422;2023-06-10T01:30:53;7.40;;;3.63;;
3491;SDS011;1760;52.480;13.422;2023-06-10T01:33:29;4.80;;;2.80;;
3491;SDS011;1760;52.480;13.422;2023-06-10T01:36:01;5.00;;;3.00;;
3491;SDS011;1760;52.480;13.422;2023-06-10T01:38:33;6.43;;;3.60;;
3491;SDS011;1760;52.480;13.422;2023-06-10T01:41:03;7.33;;;3.63;;
3491;SDS011;1760;52.480;13.422;2023-06-10T01:43:32;6.47;;;3.00;;
3491;SDS011;1760;52.480;13.422;2023-06-10T01:46:00;7.23;;;3.40;;
3491;SDS011;1760;52.480;13.422;2023-06-10T01:48:28;7.73;;;3.63;;
3491;SDS011;1760;52.480;13.422;2023-06-10T01:50:55;7.77;;;3.13;;
3491;SDS011;1760;52.480;13.422;2023-06-10T01:53:23;7.30;;;3.37;;
3491;SDS011;1760;52.480;13.422;2023-06-10T01:55:53;11.30;;;4.33;;
3491;SDS011;1760;52.480;13.422;2023-06-10T01:58:21;7.93;;;4.10;;
3491;SDS011;1760;52.480;13.422;2023-06-10T02:00:48;6.83;;;4.23;;
3491;SDS011;1760;52.480;13.422;2023-06-10T02:03:17;11.63;;;4.00;;
3491;SDS011;1760;52.480;13.422;2023-06-10T02:05:47;6.30;;;3.07;;
3491;SDS011;1760;52.480;13.422;2023-06-10T02:08:15;4.23;;;2.27;;
3491;SDS011;1760;52.480;13.422;2023-06-10T02:10:42;8.60;;;3.50;;
3491;SDS011;1760;52.480;13.422;2023-06-10T02:13:13;4.27;;;3.20;;
3491;SDS011;1760;52.480;13.422;2023-06-10T02:15:44;7.37;;;3.30;;
3491;SDS011;1760;52.480;13.422;2023-06-10T02:18:15;9.63;;;5.00;;
3491;SDS011;1760;52.480;13.422;2023-06-10T02:20:45;15.20;;;4.03;;
3491;SDS011;1760;52.480;13.422;2023-06-10T02:23:12;10.50;;;3.70;;
3491;SDS011;1760;52.480;13.422;2023-06-10T02:25:41;8.03;;;3.50;;
3491;SDS011;1760;52.480;13.422;2023-06-10T02:28:14;6.90;;;3.00;;
3491;SDS011;1760;52.480;13.422;2023-06-10T02:30:44;9.10;;;4.40;;
3491;SDS011;1760;52.480;13.422;2023-06-10T02:33:13;8.77;;;3.20;;
3491;SDS011;1760;52.480;13.422;2023-06-10T02:35:42;4.20;;;3.13;;
3491;SDS011;1760;52.480;13.422;2023-06-10T02:38:12;8.07;;;3.40;;
3491;SDS011;1760;52.480;13.422;2023-06-10T02:40:47;6.67;;;3.10;;
3491;SDS011;1760;52.480;13.422;2023-06-10T02:43:15;5.53;;;2.70;;
3491;SDS011;1760;52.480;13.422;2023-06-10T02:45:43;6.40;;;3.03;;
3491;SDS011;1760;52.480;13.422;2023-06-10T02:48:15;6.50;;;4.23;;
3491;SDS011;1760;52.480;13.422;2023-06-10T02:50:41;8.07;;;3.60;;
3491;SDS011;1760;52.480;13.422;2023-06-10T02:53:09;8.50;;;3.43;;
3491;SDS011;1760;52.480;13.422;2023-06-10T02:55:36;8.40;;;3.10;;
3491;SDS011;1760;52.480;13.422;2023-06-10T02:58:05;4.33;;;3.43;;
3491;SDS011;1760;52.480;13.422;2023-06-10T03:00:33;7.17;;;3.33;;
3491;SDS011;1760;52.480;13.422;2023-06-10T03:03:06;11.40;;;3.63;;
3491;SDS011;1760;52.480;13.422;2023-06-10T03:05:33;7.53;;;4.23;;
3491;SDS011;1760;52.480;13.422;2023-06-10T03:08:00;7.27;;;3.47;;
3491;SDS011;1760;52.480;13.422;2023-06-10T03:10:31;7.00;;;3.50;;
3491;SDS011;1760;52.480;13.422;2023-06-10T03:12:59;5.60;;;3.90;;
3491;SDS011;1760;52.480;13.422;2023-06-10T03:15:26;5.77;;;4.20;;
3491;SDS011;1760;52.480;13.422;2023-06-10T03:18:00;7.50;;;3.63;;
3491;SDS011;1760;52.480;13.422;2023-06-10T03:20:27;9.63;;;3.37;;
3491;SDS011;1760;52.480;13.422;2023-06-10T03:22:55;6.20;;;3.57;;
3491;SDS011;1760;52.480;13.422;2023-06-10T03:25:27;4.63;;;3.70;;
3491;SDS011;1760;52.480;13.422;2023-06-10T03:27:55;13.90;;;4.40;;
3491;SDS011;1760;52.480;13.422;2023-06-10T03:30:23;8.53;;;3.67;;
3491;SDS011;1760;52.480;13.422;2023-06-10T03:32:55;5.73;;;3.60;;
3491;SDS011;1760;52.480;13.422;2023-06-10T03:35:24;8.87;;;4.67;;
3491;SDS011;1760;52.480;13.422;2023-06-10T03:37:53;7.27;;;4.40;;
3491;SDS011;1760;52.480;13.422;2023-06-10T03:40:21;8.50;;;4.47;;
3491;SDS011;1760;52.480;13.422;2023-06-10T03:42:48;12.43;;;4.17;;
3491;SDS011;1760;52.480;13.422;2023-06-10T03:45:17;7.90;;;4.27;;
3491;SDS011;1760;52.480;13.422;2023-06-10T03:47:47;9.90;;;3.80;;
3491;SDS011;1760;52.480;13.422;2023-06-10T03:50:14;6.30;;;3.90;;
3491;SDS011;1760;52.480;13.422;2023-06-10T03:52:43;5.70;;;3.63;;
3491;SDS011;1760;52.480;13.422;2023-06-10T03:55:10;5.73;;;4.33;;
3491;SDS011;1760;52.480;13.422;2023-06-10T03:57:38;6.50;;;4.00;;
3491;SDS011;1760;52.480;13.422;2023-06-10T04:00:06;8.10;;;3.93;;
3491;SDS011;1760;52.480;13.422;2023-06-10T04:02:36;6.50;;;3.63;;
3491;SDS011;1760;52.480;13.422;2023-06-10T04:05:07;12.50;;;4.00;;
3491;SDS011;1760;52.480;13.422;2023-06-10T04:07:34;5.00;;;4.30;;
3491;SDS011;1760;52.480;13.422;2023-06-10T04:10:03;7.60;;;3.60;;
3491;SDS011;1760;52.480;13.422;2023-06-10T04:12:32;12.33;;;4.23;;
3491;SDS011;1760;52.480;13.422;2023-06-10T04:14:59;11.33;;;4.87;;
3491;SDS011;1760;52.480;13.422;2023-06-10T04:17:27;9.50;;;4.10;;
3491;SDS011;1760;52.480;13.422;2023-06-10T04:19:54;8.60;;;4.33;;
3491;SDS011;1760;52.480;13.422;2023-06-10T04:22:22;6.80;;;4.80;;
3491;SDS011;1760;52.480;13.422;2023-06-10T04:24:49;17.40;;;4.80;;
3491;SDS011;1760;52.480;13.422;2023-06-10T04:27:18;6.47;;;4.80;;
3491;SDS011;1760;52.480;13.422;2023-06-10T04:29:45;7.30;;;4.27;;
3491;SDS011;1760;52.480;13.422;2023-06-10T04:32:12;8.60;;;4.43;;
3491;SDS011;1760;52.480;13.422;2023-06-10T04:34:40;7.93;;;3.80;;
3491;SDS011;1760;52.480;13.422;2023-06-10T04:37:08;5.73;;;3.40;;
3491;SDS011;1760;52.480;13.422;2023-06-10T04:39:38;8.40;;;3.83;;
3491;SDS011;1760;52.480;13.422;2023-06-10T04:42:07;5.43;;;4.10;;
3491;SDS011;1760;52.480;13.422;2023-06-10T04:44:36;8.30;;;3.77;;
3491;SDS011;1760;52.480;13.422;2023-06-10T04:47:04;5.87;;;4.43;;
3491;SDS011;1760;52.480;13.422;2023-06-10T04:49:32;8.83;;;4.90;;
3491;SDS011;1760;52.480;13.422;2023-06-10T04:52:01;9.03;;;4.40;;
3491;SDS011;1760;52.480;13.422;2023-06-10T04:54:29;11.23;;;4.63;;
3491;SDS011;1760;52.480;13.422;2023-06-10T04:56:57;9.50;;;4.47;;
3491;SDS011;1760;52.480;13.422;2023-06-10T04:59:25;6.20;;;4.13;;
3491;SDS011;1760;52.480;13.422;2023-06-10T05:01:54;8.93;;;5.13;;
3491;SDS011;1760;52.480;13.422;2023-06-10T05:04:21;5.10;;;3.40;;
3491;SDS011;1760;52.480;13.422;2023-06-10T05:06:49;9.23;;;4.53;;
3491;SDS011;1760;52.480;13.422;2023-06-10T05:09:17;7.20;;;4.67;;
3491;SDS011;1760;52.480;13.422;2023-06-10T05:11:48;8.23;;;4.90;;
3491;SDS011;1760;52.480;13.422;2023-06-10T05:14:15;8.00;;;4.90;;
3491;SDS011;1760;52.480;13.422;2023-06-10T05:16:44;10.53;;;4.77;;
3491;SDS011;1760;52.480;13.422;2023-06-10T05:19:15;11.43;;;4.43;;
3491;SDS011;1760;52.480;13.422;2023-06-10T05:21:43;7.80;;;4.33;;
3491;SDS011;1760;52.480;13.422;2023-06-10T05:24:13;8.20;;;5.37;;
3491;SDS011;1760;52.480;13.422;2023-06-10T05:26:40;6.47;;;4.10;;
3491;SDS011;1760;52.480;13.422;2023-06-10T05:29:08;6.97;;;5.63;;
3491;SDS011;1760;52.480;13.422;2023-06-10T05:31:39;11.23;;;5.50;;
3491;SDS011;1760;52.480;13.422;2023-06-10T05:34:08;11.90;;;6.10;;
3491;SDS011;1760;52.480;13.422;2023-06-10T05:36:38;6.87;;;4.87;;
3491;SDS011;1760;52.480;13.422;2023-06-10T05:39:06;11.10;;;5.03;;
3491;SDS011;1760;52.480;13.422;2023-06-10T05:41:35;13.27;;;5.70;;
3491;SDS011;1760;52.480;13.422;2023-06-10T05:44:02;7.93;;;6.10;;
3491;SDS011;1760;52.480;13.422;2023-06-10T05:46:30;8.00;;;5.03;;
3491;SDS011;1760;52.480;13.422;2023-06-10T05:49:01;7.77;;;5.07;;
3491;SDS011;1760;52.480;13.422;2023-06-10T05:51:29;10.93;;;5.20;;
3491;SDS011;1760;52.480;13.422;2023-06-10T05:53:59;9.53;;;4.37;;
3491;SDS011;1760;52.480;13.422;2023-06-10T05:56:26;18.00;;;4.70;;
3491;SDS011;1760;52.480;13.422;2023-06-10T05:58:54;7.50;;;4.53;;
3491;SDS011;1760;52.480;13.422;2023-06-10T06:01:21;11.53;;;5.83;;
3491;SDS011;1760;52.480;13.422;2023-06-10T06:03:48;9.80;;;4.80;;
3491;SDS011;1760;52.480;13.422;2023-06-10T06:06:16;8.77;;;5.20;;
3491;SDS011;1760;52.480;13.422;2023-06-10T06:08:45;6.30;;;4.27;;
3491;SDS011;1760;52.480;13.422;2023-06-10T06:11:16;6.43;;;4.60;;
3491;SDS011;1760;52.480;13.422;2023-06-10T06:13:44;9.50;;;5.03;;
3491;SDS011;1760;52.480;13.422;2023-06-10T06:16:13;10.30;;;4.30;;
3491;SDS011;1760;52.480;13.422;2023-06-10T06:18:42;8.83;;;5.17;;
3491;SDS011;1760;52.480;13.422;2023-06-10T06:21:10;13.93;;;5.50;;
3491;SDS011;1760;52.480;13.422;2023-06-10T06:23:38;8.27;;;4.90;;
3491;SDS011;1760;52.480;13.422;2023-06-10T06:26:06;9.67;;;5.30;;
3491;SDS011;1760;52.480;13.422;2023-06-10T06:28:34;6.37;;;4.90;;
3491;SDS011;1760;52.480;13.422;2023-06-10T06:31:04;6.00;;;4.93;;
3491;SDS011;1760;52.480;13.422;2023-06-10T06:33:32;8.63;;;5.60;;
3491;SDS011;1760;52.480;13.422;2023-06-10T06:36:00;9.43;;;5.43;;
3491;SDS011;1760;52.480;13.422;2023-06-10T06:38:27;11.27;;;5.60;;
3491;SDS011;1760;52.480;13.422;2023-06-10T06:40:54;6.50;;;5.87;;
3491;SDS011;1760;52.480;13.422;2023-06-10T06:43:21;7.57;;;5.20;;
3491;SDS011;1760;52.480;13.422;2023-06-10T06:45:51;5.60;;;4.90;;
3491;SDS011;1760;52.480;13.422;2023-06-10T06:48:18;9.87;;;5.10;;
3491;SDS011;1760;52.480;13.422;2023-06-10T06:50:48;7.90;;;5.30;;
3491;SDS011;1760;52.480;13.422;2023-06-10T06:53:17;9.40;;;5.20;;
3491;SDS011;1760;52.480;13.422;2023-06-10T06:55:44;9.93;;;5.07;;
3491;SDS011;1760;52.480;13.422;2023-06-10T06:58:11;9.57;;;6.27;;
3491;SDS011;1760;52.480;13.422;2023-06-10T07:00:39;9.60;;;4.80;;
3491;SDS011;1760;52.480;13.422;2023-06-10T07:03:10;7.80;;;6.20;;
3491;SDS011;1760;52.480;13.422;2023-06-10T07:05:45;10.07;;;5.97;;
3491;SDS011;1760;52.480;13.422;2023-06-10T07:08:14;9.57;;;5.57;;
3491;SDS011;1760;52.480;13.422;2023-06-10T07:10:41;7.10;;;5.53;;
3491;SDS011;1760;52.480;13.422;2023-06-10T07:13:09;7.03;;;5.33;;
3491;SDS011;1760;52.480;13.422;2023-06-10T07:15:36;5.40;;;4.90;;
3491;SDS011;1760;52.480;13.422;2023-06-10T07:18:05;5.73;;;5.13;;
3491;SDS011;1760;52.480;13.422;2023-06-10T07:20:35;5.73;;;5.00;;
3491;SDS011;1760;52.480;13.422;2023-06-10T07:23:03;6.70;;;5.63;;
3491;SDS011;1760;52.480;13.422;2023-06-10T07:25:35;9.57;;;5.07;;
3491;SDS011;1760;52.480;13.422;2023-06-10T07:28:03;9.30;;;6.00;;
3491;SDS011;1760;52.480;13.422;2023-06-10T07:30:30;6.77;;;6.07;;
3491;SDS011;1760;52.480;13.422;2023-06-10T07:32:57;6.23;;;5.40;;
3491;SDS011;1760;52.480;13.422;2023-06-10T07:35:25;7.10;;;4.70;;
3491;SDS011;1760;52.480;13.422;2023-06-10T07:37:57;7.50;;;5.57;;
3491;SDS011;1760;52.480;13.422;2023-06-10T07:40:24;11.20;;;6.87;;
3491;SDS011;1760;52.480;13.422;2023-06-10T07:42:52;10.53;;;7.27;;
3491;SDS011;1760;52.480;13.422;2023-06-10T07:45:19;6.63;;;5.57;;
3491;SDS011;1760;52.480;13.422;2023-06-10T07:47:47;5.50;;;5.00;;
3491;SDS011;1760;52.480;13.422;2023-06-10T07:50:14;7.03;;;5.30;;
3491;SDS011;1760;52.480;13.422;2023-06-10T07:52:42;12.13;;;6.23;;
3491;SDS011;1760;52.480;13.422;2023-06-10T07:55:11;10.03;;;6.57;;
3491;SDS011;1760;52.480;13.422;2023-06-10T07:57:44;8.00;;;5.43;;
3491;SDS011;1760;52.480;13.422;2023-06-10T08:00:13;7.23;;;6.53;;
3491;SDS011;1760;52.480;13.422;2023-06-10T08:02:40;12.60;;;5.00;;
3491;SDS011;1760;52.480;13.422;2023-06-10T08:05:09;10.03;;;5.27;;
3491;SDS011;1760;52.480;13.422;2023-06-10T08:07:37;7.73;;;5.80;;
3491;SDS011;1760;52.480;13.422;2023-06-10T08:10:05;8.20;;;6.53;;
3491;SDS011;1760;52.480;13.422;2023-06-10T08:12:35;8.37;;;6.40;;
3491;SDS011;1760;52.480;13.422;2023-06-10T08:15:03;8.47;;;6.33;;
3491;SDS011;1760;52.480;13.422;2023-06-10T08:17:32;6.77;;;5.97;;
3491;SDS011;1760;52.480;13.422;2023-06-10T08:20:00;13.27;;;5.70;;
3491;SDS011;1760;52.480;13.422;2023-06-10T08:22:28;10.70;;;6.33;;
3491;SDS011;1760;52.480;13.422;2023-06-10T08:24:59;14.83;;;6.13;;
3491;SDS011;1760;52.480;13.422;2023-06-10T08:27:27;8.97;;;8.00;;
3491;SDS011;1760;52.480;13.422;2023-06-10T08:29:57;8.97;;;5.43;;
3491;SDS011;1760;52.480;13.422;2023-06-10T08:32:26;6.70;;;5.40;;
3491;SDS011;1760;52.480;13.422;2023-06-10T08:34:55;11.63;;;6.27;;
3491;SDS011;1760;52.480;13.422;2023-06-10T08:37:27;9.70;;;6.17;;
3491;SDS011;1760;52.480;13.422;2023-06-10T08:39:55;8.60;;;7.57;;
3491;SDS011;1760;52.480;13.422;2023-06-10T08:42:22;7.33;;;5.70;;
3491;SDS011;1760;52.480;13.422;2023-06-10T08:44:54;10.40;;;7.30;;
3491;SDS011;1760;52.480;13.422;2023-06-10T08:47:24;6.90;;;6.20;;
3491;SDS011;1760;52.480;13.422;2023-06-10T08:49:54;6.90;;;6.30;;
3491;SDS011;1760;52.480;13.422;2023-06-10T08:52:27;8.97;;;6.23;;
3491;SDS011;1760;52.480;13.422;2023-06-10T08:55:02;12.53;;;5.80;;
3491;SDS011;1760;52.480;13.422;2023-06-10T08:57:31;10.20;;;6.80;;
3491;SDS011;1760;52.480;13.422;2023-06-10T08:59:59;7.50;;;6.47;;
3491;SDS011;1760;52.480;13.422;2023-06-10T09:02:28;8.40;;;7.50;;
3491;SDS011;1760;52.480;13.422;2023-06-10T09:04:56;8.23;;;6.63;;
3491;SDS011;1760;52.480;13.422;2023-06-10T09:07:26;7.60;;;6.30;;
3491;SDS011;1760;52.480;13.422;2023-06-10T09:09:53;9.47;;;6.30;;
3491;SDS011;1760;52.480;13.422;2023-06-10T09:12:24;7.17;;;6.47;;
3491;SDS011;1760;52.480;13.422;2023-06-10T09:14:51;8.93;;;6.70;;
3491;SDS011;1760;52.480;13.422;2023-06-10T09:17:19;8.30;;;6.60;;
3491;SDS011;1760;52.480;13.422;2023-06-10T09:19:48;8.83;;;7.47;;
3491;SDS011;1760;52.480;13.422;2023-06-10T09:22:17;7.97;;;6.77;;
3491;SDS011;1760;52.480;13.422;2023-06-10T09:24:47;7.17;;;5.87;;
3491;SDS011;1760;52.480;13.422;2023-06-10T09:27:14;9.53;;;6.93;;
3491;SDS011;1760;52.480;13.422;2023-06-10T09:29:45;10.17;;;6.30;;
3491;SDS011;1760;52.480;13.422;2023-06-10T09:32:14;7.47;;;6.73;;
3491;SDS011;1760;52.480;13.422;2023-06-10T09:34:43;9.43;;;7.37;;
3491;SDS011;1760;52.480;13.422;2023-06-10T09:37:12;20.77;;;10.60;;
3491;SDS011;1760;52.480;13.422;2023-06-10T09:39:46;6.90;;;6.30;;
3491;SDS011;1760;52.480;13.422;2023-06-10T09:42:33;7.30;;;6.40;;
3491;SDS011;1760;52.480;13.422;2023-06-10T09:45:01;6.70;;;6.07;;
3491;SDS011;1760;52.480;13.422;2023-06-10T09:47:29;10.00;;;6.37;;
3491;SDS011;1760;52.480;13.422;2023-06-10T09:49:58;9.57;;;6.40;;
3491;SDS011;1760;52.480;13.422;2023-06-10T09:52:32;5.70;;;5.20;;
3491;SDS011;1760;52.480;13.422;2023-06-10T09:54:59;6.30;;;5.37;;
3491;SDS011;1760;52.480;13.422;2023-06-10T09:57:30;6.00;;;5.10;;
3491;SDS011;1760;52.480;13.422;2023-06-10T09:59:58;6.70;;;5.60;;
3491;SDS011;1760;52.480;13.422;2023-06-10T10:02:26;7.00;;;5.77;;
3491;SDS011;1760;52.480;13.422;2023-06-10T10:05:00;7.53;;;6.23;;
3491;SDS011;1760;52.480;13.422;2023-06-10T10:07:32;6.90;;;6.30;;
3491;SDS011;1760;52.480;13.422;2023-06-10T10:10:00;7.10;;;6.30;;
3491;SDS011;1760;52.480;13.422;2023-06-10T10:12:28;7.43;;;6.23;;
3491;SDS011;1760;52.480;13.422;2023-06-10T10:14:56;9.10;;;6.00;;
3491;SDS011;1760;52.480;13.422;2023-06-10T10:17:24;7.40;;;6.40;;
3491;SDS011;1760;52.480;13.422;2023-06-10T10:19:53;6.80;;;5.70;;
3491;SDS011;1760;52.480;13.422;2023-06-10T10:22:24;5.33;;;4.83;;
3491;SDS011;1760;52.480;13.422;2023-06-10T10:24:57;6.27;;;5.67;;
3491;SDS011;1760;52.480;13.422;2023-06-10T10:27:33;8.83;;;6.00;;
3491;SDS011;1760;52.480;13.422;2023-06-10T10:30:07;6.83;;;6.10;;
3491;SDS011;1760;52.480;13.422;2023-06-10T10:32:42;7.53;;;6.37;;
3491;SDS011;1760;52.480;13.422;2023-06-10T10:35:17;5.40;;;4.90;;
3491;SDS011;1760;52.480;13.422;2023-06-10T10:37:50;6.10;;;5.50;;
3491;SDS011;1760;52.480;13.422;2023-06-10T10:40:20;6.87;;;6.07;;
3491;SDS011;1760;52.480;13.422;2023-06-10T10:42:49;5.63;;;4.80;;
3491;SDS011;1760;52.480;13.422;2023-06-10T10:45:17;4.80;;;4.40;;
3491;SDS011;1760;52.480;13.422;2023-06-10T10:47:45;5.30;;;4.90;;
3491;SDS011;1760;52.480;13.422;2023-06-10T10:50:13;6.67;;;4.83;;
3491;SDS011;1760;52.480;13.422;2023-06-10T10:52:51;5.30;;;4.53;;
3491;SDS011;1760;52.480;13.422;2023-06-10T10:55:23;4.60;;;4.20;;
3491;SDS011;1760;52.480;13.422;2023-06-10T10:57:55;5.40;;;4.90;;
3491;SDS011;1760;52.480;13.422;2023-06-10T11:00:25;5.57;;;5.07;;
3491;SDS011;1760;52.480;13.422;2023-06-10T11:02:57;4.50;;;4.00;;
3491;SDS011;1760;52.480;13.422;2023-06-10T11:05:36;4.97;;;4.60;;
3491;SDS011;1760;52.480;13.422;2023-06-10T11:08:07;4.80;;;4.30;;
3491;SDS011;1760;52.480;13.422;2023-06-10T11:10:36;4.87;;;4.37;;
3491;SDS011;1760;52.480;13.422;2023-06-10T11:13:07;15.87;;;5.90;;
3491;SDS011;1760;52.480;13.422;2023-06-10T11:15:40;6.07;;;4.97;;
3491;SDS011;1760;52.480;13.422;2023-06-10T11:18:13;7.57;;;5.80;;
3491;SDS011;1760;52.480;13.422;2023-06-10T11:21:00;7.63;;;5.63;;
3491;SDS011;1760;52.480;13.422;2023-06-10T11:23:34;8.70;;;5.77;;
3491;SDS011;1760;52.480;13.422;2023-06-10T11:26:11;5.03;;;4.37;;
3491;SDS011;1760;52.480;13.422;2023-06-10T11:31:38;6.77;;;6.17;;
3491;SDS011;1760;52.480;13.422;2023-06-10T11:34:07;6.70;;;5.50;;
3491;SDS011;1760;52.480;13.422;2023-06-10T11:36:36;6.27;;;5.67;;
3491;SDS011;1760;52.480;13.422;2023-06-10T11:39:10;11.03;;;5.93;;
3491;SDS011;1760;52.480;13.422;2023-06-10T11:41:41;6.23;;;4.90;;
3491;SDS011;1760;52.480;13.422;2023-06-10T11:44:10;5.50;;;5.00;;
3491;SDS011;1760;52.480;13.422;2023-06-10T11:46:38;7.20;;;5.23;;
3491;SDS011;1760;52.480;13.422;2023-06-10T11:49:07;8.00;;;6.03;;
3491;SDS011;1760;52.480;13.422;2023-06-10T11:51:35;6.20;;;5.43;;
3491;SDS011;1760;52.480;13.422;2023-06-10T11:54:04;5.83;;;5.33;;
3491;SDS011;1760;52.480;13.422;2023-06-10T11:56:34;7.10;;;5.27;;
3491;SDS011;1760;52.480;13.422;2023-06-10T11:59:05;6.20;;;5.60;;
3491;SDS011;1760;52.480;13.422;2023-06-10T12:01:34;5.73;;;5.10;;
3491;SDS011;1760;52.480;13.422;2023-06-10T12:04:06;7.33;;;5.20;;
3491;SDS011;1760;52.480;13.422;2023-06-10T12:06:38;6.77;;;5.07;;
3491;SDS011;1760;52.480;13.422;2023-06-10T12:09:06;6.53;;;4.90;;
3491;SDS011;1760;52.480;13.422;2023-06-10T12:11:35;8.17;;;5.43;;
3491;SDS011;1760;52.480;13.422;2023-06-10T12:14:05;6.10;;;5.50;;
3491;SDS011;1760;52.480;13.422;2023-06-10T12:16:32;5.33;;;4.80;;
3491;SDS011;1760;52.480;13.422;2023-06-10T12:19:04;6.80;;;5.00;;
3491;SDS011;1760;52.480;13.422;2023-06-10T12:21:36;4.70;;;4.30;;
3491;SDS011;1760;52.480;13.422;2023-06-10T12:24:05;6.53;;;5.00;;
3491;SDS011;1760;52.480;13.422;2023-06-10T12:26:35;5.23;;;4.73;;
3491;SDS011;1760;52.480;13.422;2023-06-10T12:29:21;5.00;;;4.50;;
3491;SDS011;1760;52.480;13.422;2023-06-10T12:31:54;7.80;;;4.90;;
3491;SDS011;1760;52.480;13.422;2023-06-10T12:34:29;7.17;;;5.27;;
3491;SDS011;1760;52.480;13.422;2023-06-10T12:36:57;7.53;;;6.80;;
3491;SDS011;1760;52.480;13.422;2023-06-10T12:39:24;6.13;;;5.53;;
3491;SDS011;1760;52.480;13.422;2023-06-10T12:41:52;7.17;;;6.07;;
3491;SDS011;1760;52.480;13.422;2023-06-10T12:44:29;7.07;;;6.37;;
3491;SDS011;1760;52.480;13.422;2023-06-10T12:46:58;11.53;;;8.70;;
3491;SDS011;1760;52.480;13.422;2023-06-10T12:49:26;22.57;;;16.77;;
3491;SDS011;1760;52.480;13.422;2023-06-10T12:51:54;9.87;;;7.63;;
3491;SDS011;1760;52.480;13.422;2023-06-10T12:54:22;14.83;;;11.23;;
3491;SDS011;1760;52.480;13.422;2023-06-10T12:56:49;19.23;;;13.90;;
3491;SDS011;1760;52.480;13.422;2023-06-10T12:59:18;27.87;;;20.13;;
3491;SDS011;1760;52.480;13.422;2023-06-10T13:01:51;14.90;;;9.90;;
3491;SDS011;1760;52.480;13.422;2023-06-10T13:04:19;7.83;;;6.90;;
3491;SDS011;1760;52.480;13.422;2023-06-10T13:06:46;8.40;;;7.60;;
3491;SDS011;1760;52.480;13.422;2023-06-10T13:09:16;8.10;;;7.30;;
3491;SDS011;1760;52.480;13.422;2023-06-10T13:11:46;8.63;;;7.40;;
3491;SDS011;1760;52.480;13.422;2023-06-10T13:14:13;7.93;;;7.23;;
3491;SDS011;1760;52.480;13.422;2023-06-10T13:16:44;10.90;;;7.13;;
3491;SDS011;1760;52.480;13.422;2023-06-10T13:19:13;8.47;;;7.57;;
3491;SDS011;1760;52.480;13.422;2023-06-10T13:21:40;9.23;;;7.87;;
3491;SDS011;1760;52.480;13.422;2023-06-10T13:24:13;8.50;;;6.20;;
3491;SDS011;1760;52.480;13.422;2023-06-10T13:26:41;9.60;;;7.90;;
3491;SDS011;1760;52.480;13.422;2023-06-10T13:29:08;15.53;;;11.10;;
3491;SDS011;1760;52.480;13.422;2023-06-10T13:31:39;8.37;;;7.57;;
3491;SDS011;1760;52.480;13.422;2023-06-10T13:34:07;8.20;;;6.93;;
3491;SDS011;1760;52.480;13.422;2023-06-10T13:36:37;8.93;;;7.17;;
3491;SDS011;1760;52.480;13.422;2023-06-10T13:39:04;9.10;;;7.47;;
3491;SDS011;1760;52.480;13.422;2023-06-10T13:41:32;8.73;;;7.93;;
3491;SDS011;1760;52.480;13.422;2023-06-10T13:44:00;15.20;;;9.63;;
3491;SDS011;1760;52.480;13.422;2023-06-10T13:46:30;7.43;;;6.30;;
3491;SDS011;1760;52.480;13.422;2023-06-10T13:48:59;9.83;;;6.90;;
3491;SDS011;1760;52.480;13.422;2023-06-10T13:51:27;7.20;;;6.50;;
3491;SDS011;1760;52.480;13.422;2023-06-10T13:53:55;16.27;;;8.20;;
3491;SDS011;1760;52.480;13.422;2023-06-10T13:56:22;7.80;;;7.10;;
3491;SDS011;1760;52.480;13.422;2023-06-10T13:58:51;9.80;;;7.90;;
3491;SDS011;1760;52.480;13.422;2023-06-10T14:01:21;7.37;;;6.80;;
3491;SDS011;1760;52.480;13.422;2023-06-10T14:03:51;7.77;;;6.60;;
3491;SDS011;1760;52.480;13.422;2023-06-10T14:06:25;8.53;;;7.60;;
3491;SDS011;1760;52.480;13.422;2023-06-10T14:08:57;9.10;;;6.40;;
3491;SDS011;1760;52.480;13.422;2023-06-10T14:11:27;8.87;;;7.40;;
3491;SDS011;1760;52.480;13.422;2023-06-10T14:13:54;10.63;;;7.60;;
3491;SDS011;1760;52.480;13.422;2023-06-10T14:16:23;8.03;;;7.03;;
3491;SDS011;1760;52.480;13.422;2023-06-10T14:18:53;7.20;;;6.50;;
3491;SDS011;1760;52.480;13.422;2023-06-10T14:21:23;7.27;;;6.57;;
3491;SDS011;1760;52.480;13.422;2023-06-10T14:23:50;7.67;;;6.97;;
3491;SDS011;1760;52.480;13.422;2023-06-10T14:26:21;7.90;;;6.23;;
3491;SDS011;1760;52.480;13.422;2023-06-10T14:28:50;10.13;;;6.10;;
3491;SDS011;1760;52.480;13.422;2023-06-10T14:31:17;22.63;;;17.20;;
3491;SDS011;1760;52.480;13.422;2023-06-10T14:33:45;14.10;;;12.67;;
3491;SDS011;1760;52.480;13.422;2023-06-10T14:36:12;11.90;;;9.40;;
3491;SDS011;1760;52.480;13.422;2023-06-10T14:38:39;20.70;;;14.50;;
3491;SDS011;1760;52.480;13.422;2023-06-10T14:41:07;8.80;;;7.77;;
3491;SDS011;1760;52.480;13.422;2023-06-10T14:43:37;7.37;;;6.67;;
3491;SDS011;1760;52.480;13.422;2023-06-10T14:46:04;7.43;;;6.20;;
3491;SDS011;1760;52.480;13.422;2023-06-10T14:48:31;7.53;;;6.73;;
3491;SDS011;1760;52.480;13.422;2023-06-10T14:51:00;7.40;;;6.60;;
3491;SDS011;1760;52.480;13.422;2023-06-10T14:53:28;9.33;;;6.57;;
3491;SDS011;1760;52.480;13.422;2023-06-10T14:55:56;11.07;;;6.83;;
3491;SDS011;1760;52.480;13.422;2023-06-10T14:58:23;8.13;;;6.30;;
3491;SDS011;1760;52.480;13.422;2023-06-10T15:00:52;6.53;;;5.77;;
3491;SDS011;1760;52.480;13.422;2023-06-10T15:03:21;6.30;;;5.70;;
3491;SDS011;1760;52.480;13.422;2023-06-10T15:05:52;9.20;;;8.30;;
3491;SDS011;1760;52.480;13.422;2023-06-10T15:08:19;11.87;;;7.50;;
3491;SDS011;1760;52.480;13.422;2023-06-10T15:10:47;8.07;;;6.93;;
3491;SDS011;1760;52.480;13.422;2023-06-10T15:13:15;8.70;;;7.33;;